sensor_id;sensor_type;location;lat;lon;timestamp;temperature;humidity
51914;DHT22;37940;53.002;6.930;2022-12-18T00:03:55;-4.10;99.90
51914;DHT22;37940;53.002;6.930;2022-12-18T00:06:22;-4.10;99.90
51914;DHT22;37940;53.002;6.930;2022-12-18T00:08:48;-4.20;99.90
51914;DHT22;37940;53.002;6.930;2022-12-18T00:11:16;-5.00;99.90
51914;DHT22;37940;53.002;6.930;2022-12-18T00:13:42;-4.10;99.90
51914;DHT22;37940;53.002;6.930;2022-12-18T00:16:11;-4.10;99.90
51914;DHT22;37940;53.002;6.930;2022-12-18T00:18:37;-4.10;99.90
51914;DHT22;37940;53.002;6.930;2022-12-18T00:21:05;-4.10;99.90
51914;DHT22;37940;53.002;6.930;2022-12-18T00:23:32;-4.10;99.90
51914;DHT22;37940;53.002;6.930;2022-12-18T00:26:03;-2.30;99.90
51914;DHT22;37940;53.002;6.930;2022-12-18T00:28:30;-3.20;99.90
51914;DHT22;37940;53.002;6.930;2022-12-18T00:31:02;-4.10;99.90
51914;DHT22;37940;53.002;6.930;2022-12-18T00:33:29;-4.10;99.90
51914;DHT22;37940;53.002;6.930;2022-12-18T00:35:54;-3.00;99.90
51914;DHT22;37940;53.002;6.930;2022-12-18T00:38:25;-4.10;99.90
51914;DHT22;37940;53.002;6.930;2022-12-18T00:40:50;-4.10;99.90
51914;DHT22;37940;53.002;6.930;2022-12-18T00:43:16;-4.10;99.90
51914;DHT22;37940;53.002;6.930;2022-12-18T00:45:42;-4.20;99.90
51914;DHT22;37940;53.002;6.930;2022-12-18T00:48:08;-4.10;99.90
51914;DHT22;37940;53.002;6.930;2022-12-18T00:50:34;-4.30;99.90
51914;DHT22;37940;53.002;6.930;2022-12-18T00:52:59;-2.70;99.90
51914;DHT22;37940;53.002;6.930;2022-12-18T00:55:25;-3.40;99.90
51914;DHT22;37940;53.002;6.930;2022-12-18T00:57:51;-4.40;99.90
51914;DHT22;37940;53.002;6.930;2022-12-18T01:00:18;-4.40;99.90
51914;DHT22;37940;53.002;6.930;2022-12-18T01:02:44;-4.40;99.90
51914;DHT22;37940;53.002;6.930;2022-12-18T01:05:11;-3.20;99.90
51914;DHT22;37940;53.002;6.930;2022-12-18T01:07:38;-4.40;99.90
51914;DHT22;37940;53.002;6.930;2022-12-18T01:10:05;-4.40;99.90
51914;DHT22;37940;53.002;6.930;2022-12-18T01:12:31;-4.40;99.90
51914;DHT22;37940;53.002;6.930;2022-12-18T01:14:57;-4.40;99.90
51914;DHT22;37940;53.002;6.930;2022-12-18T01:17:23;-4.40;99.90
51914;DHT22;37940;53.002;6.930;2022-12-18T01:19:48;-4.40;99.90
51914;DHT22;37940;53.002;6.930;2022-12-18T01:22:14;-4.40;99.90
51914;DHT22;37940;53.002;6.930;2022-12-18T01:24:40;-4.40;99.90
51914;DHT22;37940;53.002;6.930;2022-12-18T01:27:06;-4.40;99.90
51914;DHT22;37940;53.002;6.930;2022-12-18T01:29:31;-4.40;99.90
51914;DHT22;37940;53.002;6.930;2022-12-18T01:31:57;-4.50;99.90
51914;DHT22;37940;53.002;6.930;2022-12-18T01:34:24;-4.50;99.90
51914;DHT22;37940;53.002;6.930;2022-12-18T01:36:50;-4.50;99.90
51914;DHT22;37940;53.002;6.930;2022-12-18T01:39:18;-4.60;99.90
51914;DHT22;37940;53.002;6.930;2022-12-18T01:41:45;-4.70;99.90
51914;DHT22;37940;53.002;6.930;2022-12-18T01:47:24;-4.80;99.90
51914;DHT22;37940;53.002;6.930;2022-12-18T01:49:50;-4.90;99.90
51914;DHT22;37940;53.002;6.930;2022-12-18T01:52:17;-5.00;99.90
51914;DHT22;37940;53.002;6.930;2022-12-18T01:54:44;-5.10;99.90
51914;DHT22;37940;53.002;6.930;2022-12-18T01:57:10;-5.20;99.90
51914;DHT22;37940;53.002;6.930;2022-12-18T01:59:37;-3.60;99.90
51914;DHT22;37940;53.002;6.930;2022-12-18T02:02:03;-5.30;99.90
51914;DHT22;37940;53.002;6.930;2022-12-18T02:04:29;-5.40;99.90
51914;DHT22;37940;53.002;6.930;2022-12-18T02:09:36;-5.50;99.90
51914;DHT22;37940;53.002;6.930;2022-12-18T02:12:12;-5.70;99.90
51914;DHT22;37940;53.002;6.930;2022-12-18T02:14:41;-5.60;99.90
51914;DHT22;37940;53.002;6.930;2022-12-18T02:17:25;-6.60;99.90
51914;DHT22;37940;53.002;6.930;2022-12-18T02:27:51;-5.90;99.90
51914;DHT22;37940;53.002;6.930;2022-12-18T02:30:18;-5.90;99.90
51914;DHT22;37940;53.002;6.930;2022-12-18T02:32:48;-5.90;99.90
51914;DHT22;37940;53.002;6.930;2022-12-18T02:35:20;-6.00;99.90
51914;DHT22;37940;53.002;6.930;2022-12-18T02:37:48;-6.00;99.90
51914;DHT22;37940;53.002;6.930;2022-12-18T02:40:15;-6.10;99.90
51914;DHT22;37940;53.002;6.930;2022-12-18T02:42:42;-6.10;99.90
51914;DHT22;37940;53.002;6.930;2022-12-18T02:45:08;-6.10;99.90
51914;DHT22;37940;53.002;6.930;2022-12-18T02:47:38;-6.20;99.90
51914;DHT22;37940;53.002;6.930;2022-12-18T02:50:14;-5.60;99.90
51914;DHT22;37940;53.002;6.930;2022-12-18T03:03:57;-6.40;99.90
51914;DHT22;37940;53.002;6.930;2022-12-18T03:06:39;-6.50;99.90
51914;DHT22;37940;53.002;6.930;2022-12-18T03:09:16;-6.50;99.90
51914;DHT22;37940;53.002;6.930;2022-12-18T03:11:48;-6.60;99.90
51914;DHT22;37940;53.002;6.930;2022-12-18T03:14:36;-6.60;99.90
51914;DHT22;37940;53.002;6.930;2022-12-18T03:17:05;-6.60;99.90
51914;DHT22;37940;53.002;6.930;2022-12-18T03:19:33;-6.70;99.90
51914;DHT22;37940;53.002;6.930;2022-12-18T03:22:02;-6.70;99.90
51914;DHT22;37940;53.002;6.930;2022-12-18T03:24:29;-6.70;99.90
51914;DHT22;37940;53.002;6.930;2022-12-18T03:27:00;-5.20;99.90
51914;DHT22;37940;53.002;6.930;2022-12-18T03:29:35;-6.70;99.90
51914;DHT22;37940;53.002;6.930;2022-12-18T03:32:16;-6.60;99.90
51914;DHT22;37940;53.002;6.930;2022-12-18T03:34:44;-5.50;99.90
51914;DHT22;37940;53.002;6.930;2022-12-18T03:37:12;-6.90;99.90
51914;DHT22;37940;53.002;6.930;2022-12-18T03:39:37;-6.90;99.90
51914;DHT22;37940;53.002;6.930;2022-12-18T03:42:25;-6.90;99.90
51914;DHT22;37940;53.002;6.930;2022-12-18T03:48:01;-6.90;99.90
51914;DHT22;37940;53.002;6.930;2022-12-18T03:50:48;-6.90;99.90
51914;DHT22;37940;53.002;6.930;2022-12-18T03:53:37;-7.00;99.90
51914;DHT22;37940;53.002;6.930;2022-12-18T03:56:06;-7.00;99.90
51914;DHT22;37940;53.002;6.930;2022-12-18T03:58:36;-7.10;99.90
51914;DHT22;37940;53.002;6.930;2022-12-18T04:01:05;-7.10;99.90
51914;DHT22;37940;53.002;6.930;2022-12-18T04:03:32;-7.20;99.90
51914;DHT22;37940;53.002;6.930;2022-12-18T04:06:00;-7.10;99.90
51914;DHT22;37940;53.002;6.930;2022-12-18T04:08:26;-5.70;99.90
51914;DHT22;37940;53.002;6.930;2022-12-18T04:10:53;-7.20;99.90
51914;DHT22;37940;53.002;6.930;2022-12-18T04:13:32;-7.20;99.90
51914;DHT22;37940;53.002;6.930;2022-12-18T04:15:59;-7.20;99.90
51914;DHT22;37940;53.002;6.930;2022-12-18T04:18:25;-7.20;99.90
51914;DHT22;37940;53.002;6.930;2022-12-18T04:20:51;-6.40;99.90
51914;DHT22;37940;53.002;6.930;2022-12-18T04:23:16;-7.20;99.90
51914;DHT22;37940;53.002;6.930;2022-12-18T04:25:42;-7.40;99.90
51914;DHT22;37940;53.002;6.930;2022-12-18T04:28:08;-7.30;99.90
51914;DHT22;37940;53.002;6.930;2022-12-18T04:30:34;-7.30;99.90
51914;DHT22;37940;53.002;6.930;2022-12-18T04:32:59;-7.30;99.90
51914;DHT22;37940;53.002;6.930;2022-12-18T04:35:25;-7.30;99.90
51914;DHT22;37940;53.002;6.930;2022-12-18T04:37:51;-7.30;99.90
51914;DHT22;37940;53.002;6.930;2022-12-18T04:40:16;-7.30;99.90
51914;DHT22;37940;53.002;6.930;2022-12-18T04:42:42;-7.30;99.90
51914;DHT22;37940;53.002;6.930;2022-12-18T04:45:08;-7.40;99.90
51914;DHT22;37940;53.002;6.930;2022-12-18T04:47:34;-7.40;99.90
51914;DHT22;37940;53.002;6.930;2022-12-18T04:50:00;-8.20;99.90
51914;DHT22;37940;53.002;6.930;2022-12-18T04:52:26;-7.40;99.90
51914;DHT22;37940;53.002;6.930;2022-12-18T04:54:52;-7.50;99.90
51914;DHT22;37940;53.002;6.930;2022-12-18T04:57:17;-7.50;99.90
51914;DHT22;37940;53.002;6.930;2022-12-18T04:59:44;-7.60;99.90
51914;DHT22;37940;53.002;6.930;2022-12-18T05:02:10;-7.50;99.90
51914;DHT22;37940;53.002;6.930;2022-12-18T05:04:35;-7.60;99.90
51914;DHT22;37940;53.002;6.930;2022-12-18T05:07:01;-7.60;99.90
51914;DHT22;37940;53.002;6.930;2022-12-18T05:09:27;-7.60;99.90
51914;DHT22;37940;53.002;6.930;2022-12-18T05:11:53;-7.60;99.90
51914;DHT22;37940;53.002;6.930;2022-12-18T05:14:19;-7.30;99.90
51914;DHT22;37940;53.002;6.930;2022-12-18T05:16:45;-7.60;99.90
51914;DHT22;37940;53.002;6.930;2022-12-18T05:19:10;-7.60;99.90
51914;DHT22;37940;53.002;6.930;2022-12-18T05:21:36;-7.60;99.90
51914;DHT22;37940;53.002;6.930;2022-12-18T05:24:02;-7.60;99.90
51914;DHT22;37940;53.002;6.930;2022-12-18T05:26:28;-7.60;99.90
51914;DHT22;37940;53.002;6.930;2022-12-18T05:28:53;-7.60;99.90
51914;DHT22;37940;53.002;6.930;2022-12-18T05:31:19;-7.60;99.90
51914;DHT22;37940;53.002;6.930;2022-12-18T05:33:45;-5.80;99.90
51914;DHT22;37940;53.002;6.930;2022-12-18T05:36:11;-7.60;99.90
51914;DHT22;37940;53.002;6.930;2022-12-18T05:38:38;-7.70;99.90
51914;DHT22;37940;53.002;6.930;2022-12-18T05:41:04;-7.70;99.90
51914;DHT22;37940;53.002;6.930;2022-12-18T05:43:30;-7.80;99.90
51914;DHT22;37940;53.002;6.930;2022-12-18T05:45:56;-7.70;99.90
51914;DHT22;37940;53.002;6.930;2022-12-18T05:48:23;-7.70;99.90
51914;DHT22;37940;53.002;6.930;2022-12-18T05:50:50;-7.70;99.90
51914;DHT22;37940;53.002;6.930;2022-12-18T05:53:18;-7.70;99.90
51914;DHT22;37940;53.002;6.930;2022-12-18T05:55:45;-7.70;99.90
51914;DHT22;37940;53.002;6.930;2022-12-18T05:58:12;-7.70;99.90
51914;DHT22;37940;53.002;6.930;2022-12-18T06:00:40;-8.00;99.90
51914;DHT22;37940;53.002;6.930;2022-12-18T06:03:10;-7.80;99.90
51914;DHT22;37940;53.002;6.930;2022-12-18T06:05:42;-7.80;99.90
51914;DHT22;37940;53.002;6.930;2022-12-18T06:08:08;-7.70;99.90
51914;DHT22;37940;53.002;6.930;2022-12-18T06:10:34;-7.80;99.90
51914;DHT22;37940;53.002;6.930;2022-12-18T06:13:00;-7.80;99.90
51914;DHT22;37940;53.002;6.930;2022-12-18T06:15:26;-7.80;99.90
51914;DHT22;37940;53.002;6.930;2022-12-18T06:17:51;-7.90;99.90
51914;DHT22;37940;53.002;6.930;2022-12-18T06:20:17;-6.80;99.90
51914;DHT22;37940;53.002;6.930;2022-12-18T06:22:44;-7.90;99.90
51914;DHT22;37940;53.002;6.930;2022-12-18T06:25:10;-7.90;99.90
51914;DHT22;37940;53.002;6.930;2022-12-18T06:27:35;-7.90;99.90
51914;DHT22;37940;53.002;6.930;2022-12-18T06:30:02;-8.00;99.90
51914;DHT22;37940;53.002;6.930;2022-12-18T06:32:28;-7.90;99.90
51914;DHT22;37940;53.002;6.930;2022-12-18T06:34:54;-8.00;99.90
51914;DHT22;37940;53.002;6.930;2022-12-18T06:37:21;-8.00;99.90
51914;DHT22;37940;53.002;6.930;2022-12-18T06:39:47;-8.00;99.90
51914;DHT22;37940;53.002;6.930;2022-12-18T06:42:13;-9.30;99.90
51914;DHT22;37940;53.002;6.930;2022-12-18T06:44:38;-8.00;99.90
51914;DHT22;37940;53.002;6.930;2022-12-18T06:47:04;-8.10;99.90
51914;DHT22;37940;53.002;6.930;2022-12-18T06:49:30;-8.10;99.90
51914;DHT22;37940;53.002;6.930;2022-12-18T06:51:56;-8.10;99.90
51914;DHT22;37940;53.002;6.930;2022-12-18T06:54:21;-8.00;99.90
51914;DHT22;37940;53.002;6.930;2022-12-18T06:56:47;-8.00;99.90
51914;DHT22;37940;53.002;6.930;2022-12-18T06:59:13;-8.10;99.90
51914;DHT22;37940;53.002;6.930;2022-12-18T07:01:40;-6.80;99.90
51914;DHT22;37940;53.002;6.930;2022-12-18T07:04:06;-8.00;99.90
51914;DHT22;37940;53.002;6.930;2022-12-18T07:06:31;-8.00;99.90
51914;DHT22;37940;53.002;6.930;2022-12-18T07:08:57;-8.00;99.90
51914;DHT22;37940;53.002;6.930;2022-12-18T07:11:23;-8.00;99.90
51914;DHT22;37940;53.002;6.930;2022-12-18T07:13:49;-7.90;99.90
51914;DHT22;37940;53.002;6.930;2022-12-18T07:16:17;-7.90;99.90
51914;DHT22;37940;53.002;6.930;2022-12-18T07:18:44;-7.90;99.90
51914;DHT22;37940;53.002;6.930;2022-12-18T07:21:12;-7.90;99.90
51914;DHT22;37940;53.002;6.930;2022-12-18T07:23:38;-7.90;99.90
51914;DHT22;37940;53.002;6.930;2022-12-18T07:26:09;-7.90;99.90
51914;DHT22;37940;53.002;6.930;2022-12-18T07:28:36;-7.90;99.90
51914;DHT22;37940;53.002;6.930;2022-12-18T07:31:06;-5.80;99.90
51914;DHT22;37940;53.002;6.930;2022-12-18T07:33:33;-7.90;99.90
51914;DHT22;37940;53.002;6.930;2022-12-18T07:36:00;-7.90;99.90
51914;DHT22;37940;53.002;6.930;2022-12-18T07:38:27;-7.90;99.90
51914;DHT22;37940;53.002;6.930;2022-12-18T07:40:52;-7.90;99.90
51914;DHT22;37940;53.002;6.930;2022-12-18T07:43:18;-7.80;99.90
51914;DHT22;37940;53.002;6.930;2022-12-18T07:45:44;-7.80;99.90
51914;DHT22;37940;53.002;6.930;2022-12-18T07:48:10;-7.80;99.90
51914;DHT22;37940;53.002;6.930;2022-12-18T07:50:36;-6.10;99.90
51914;DHT22;37940;53.002;6.930;2022-12-18T07:53:01;-7.70;99.90
51914;DHT22;37940;53.002;6.930;2022-12-18T07:55:32;-7.60;99.90
51914;DHT22;37940;53.002;6.930;2022-12-18T07:58:00;-7.60;99.90
51914;DHT22;37940;53.002;6.930;2022-12-18T08:00:26;-7.50;99.90
51914;DHT22;37940;53.002;6.930;2022-12-18T08:02:52;-7.50;99.90
51914;DHT22;37940;53.002;6.930;2022-12-18T08:05:18;-7.50;99.90
51914;DHT22;37940;53.002;6.930;2022-12-18T08:07:44;-7.40;99.90
51914;DHT22;37940;53.002;6.930;2022-12-18T08:10:10;-7.40;99.90
51914;DHT22;37940;53.002;6.930;2022-12-18T08:12:35;-7.40;99.90
51914;DHT22;37940;53.002;6.930;2022-12-18T08:15:01;-7.30;99.90
51914;DHT22;37940;53.002;6.930;2022-12-18T08:17:27;-7.20;99.90
51914;DHT22;37940;53.002;6.930;2022-12-18T08:19:52;-7.20;99.90
51914;DHT22;37940;53.002;6.930;2022-12-18T08:22:18;-7.10;99.90
51914;DHT22;37940;53.002;6.930;2022-12-18T08:24:44;-7.00;99.90
51914;DHT22;37940;53.002;6.930;2022-12-18T08:27:10;-7.00;99.90
51914;DHT22;37940;53.002;6.930;2022-12-18T08:29:36;-6.90;99.90
51914;DHT22;37940;53.002;6.930;2022-12-18T08:32:01;-6.80;99.90
51914;DHT22;37940;53.002;6.930;2022-12-18T08:34:27;-6.70;99.90
51914;DHT22;37940;53.002;6.930;2022-12-18T08:36:53;-6.60;99.90
51914;DHT22;37940;53.002;6.930;2022-12-18T08:39:19;-6.50;99.90
51914;DHT22;37940;53.002;6.930;2022-12-18T08:41:45;-5.30;99.90
51914;DHT22;37940;53.002;6.930;2022-12-18T08:44:30;-6.30;99.90
51914;DHT22;37940;53.002;6.930;2022-12-18T08:47:06;-6.30;99.90
51914;DHT22;37940;53.002;6.930;2022-12-18T08:49:33;-6.20;99.90
51914;DHT22;37940;53.002;6.930;2022-12-18T08:51:59;-5.00;99.90
51914;DHT22;37940;53.002;6.930;2022-12-18T08:54:25;-6.00;99.90
51914;DHT22;37940;53.002;6.930;2022-12-18T08:56:51;-6.00;99.90
51914;DHT22;37940;53.002;6.930;2022-12-18T08:59:17;-4.10;99.90
51914;DHT22;37940;53.002;6.930;2022-12-18T09:01:43;-5.80;99.90
51914;DHT22;37940;53.002;6.930;2022-12-18T09:04:09;-5.90;99.90
51914;DHT22;37940;53.002;6.930;2022-12-18T09:06:36;-5.70;99.90
51914;DHT22;37940;53.002;6.930;2022-12-18T09:09:03;-5.60;99.90
51914;DHT22;37940;53.002;6.930;2022-12-18T09:11:29;-5.60;99.90
51914;DHT22;37940;53.002;6.930;2022-12-18T09:13:56;-5.50;99.90
51914;DHT22;37940;53.002;6.930;2022-12-18T09:16:23;-5.40;99.90
51914;DHT22;37940;53.002;6.930;2022-12-18T09:18:49;-3.50;99.90
51914;DHT22;37940;53.002;6.930;2022-12-18T09:21:17;-5.20;99.90
51914;DHT22;37940;53.002;6.930;2022-12-18T09:23:48;-5.10;99.90
51914;DHT22;37940;53.002;6.930;2022-12-18T09:26:14;-5.00;99.90
51914;DHT22;37940;53.002;6.930;2022-12-18T09:28:40;-4.90;99.90
51914;DHT22;37940;53.002;6.930;2022-12-18T09:31:07;-4.80;99.90
51914;DHT22;37940;53.002;6.930;2022-12-18T09:33:36;-4.70;99.90
51914;DHT22;37940;53.002;6.930;2022-12-18T09:36:04;-4.60;99.90
51914;DHT22;37940;53.002;6.930;2022-12-18T09:38:30;-4.60;99.90
51914;DHT22;37940;53.002;6.930;2022-12-18T09:41:14;-4.50;99.90
51914;DHT22;37940;53.002;6.930;2022-12-18T09:43:47;-4.30;99.90
51914;DHT22;37940;53.002;6.930;2022-12-18T09:46:25;-4.20;99.90
51914;DHT22;37940;53.002;6.930;2022-12-18T09:48:55;-4.10;99.90
51914;DHT22;37940;53.002;6.930;2022-12-18T09:51:30;-4.00;99.90
51914;DHT22;37940;53.002;6.930;2022-12-18T09:54:10;-3.80;99.90
51914;DHT22;37940;53.002;6.930;2022-12-18T09:56:41;-3.70;99.90
51914;DHT22;37940;53.002;6.930;2022-12-18T09:59:24;-3.60;99.90
51914;DHT22;37940;53.002;6.930;2022-12-18T10:01:51;-3.50;99.90
51914;DHT22;37940;53.002;6.930;2022-12-18T10:04:17;-3.40;99.90
51914;DHT22;37940;53.002;6.930;2022-12-18T10:07:09;-3.40;99.90
51914;DHT22;37940;53.002;6.930;2022-12-18T10:10:00;-3.30;99.90
51914;DHT22;37940;53.002;6.930;2022-12-18T10:12:38;-3.30;99.90
51914;DHT22;37940;53.002;6.930;2022-12-18T10:15:26;-3.30;99.90
51914;DHT22;37940;53.002;6.930;2022-12-18T10:18:01;-3.40;99.90
51914;DHT22;37940;53.002;6.930;2022-12-18T10:20:44;-3.40;99.90
51914;DHT22;37940;53.002;6.930;2022-12-18T10:23:19;-1.60;99.90
51914;DHT22;37940;53.002;6.930;2022-12-18T10:26:05;-2.10;99.90
51914;DHT22;37940;53.002;6.930;2022-12-18T10:28:33;-3.60;99.90
51914;DHT22;37940;53.002;6.930;2022-12-18T10:31:00;-3.60;99.90
51914;DHT22;37940;53.002;6.930;2022-12-18T10:33:29;-3.60;99.90
51914;DHT22;37940;53.002;6.930;2022-12-18T10:35:56;-3.20;99.90
51914;DHT22;37940;53.002;6.930;2022-12-18T10:41:42;-3.40;99.90
51914;DHT22;37940;53.002;6.930;2022-12-18T10:43:44;-3.40;99.90
51914;DHT22;37940;53.002;6.930;2022-12-18T10:51:05;-3.30;99.90
51914;DHT22;37940;53.002;6.930;2022-12-18T10:53:33;-3.30;99.90
51914;DHT22;37940;53.002;6.930;2022-12-18T10:56:00;-3.30;99.90
51914;DHT22;37940;53.002;6.930;2022-12-18T10:58:35;-3.30;99.90
51914;DHT22;37940;53.002;6.930;2022-12-18T11:01:17;-3.20;99.90
51914;DHT22;37940;53.002;6.930;2022-12-18T11:06:23;-3.20;99.90
51914;DHT22;37940;53.002;6.930;2022-12-18T11:09:19;-3.10;99.90
51914;DHT22;37940;53.002;6.930;2022-12-18T11:11:53;-3.10;99.90
51914;DHT22;37940;53.002;6.930;2022-12-18T11:14:32;-3.00;99.90
51914;DHT22;37940;53.002;6.930;2022-12-18T11:16:59;-3.00;99.90
51914;DHT22;37940;53.002;6.930;2022-12-18T11:21:54;-2.80;99.90
51914;DHT22;37940;53.002;6.930;2022-12-18T11:24:31;-2.70;99.90
51914;DHT22;37940;53.002;6.930;2022-12-18T11:27:03;-1.10;99.90
51914;DHT22;37940;53.002;6.930;2022-12-18T11:29:35;-1.10;99.90
51914;DHT22;37940;53.002;6.930;2022-12-18T11:34:58;-2.50;99.90
51914;DHT22;37940;53.002;6.930;2022-12-18T11:37:25;-2.20;99.90
51914;DHT22;37940;53.002;6.930;2022-12-18T11:40:14;-2.30;99.90
51914;DHT22;37940;53.002;6.930;2022-12-18T11:42:55;-2.30;99.90
51914;DHT22;37940;53.002;6.930;2022-12-18T11:45:29;-2.30;99.90
51914;DHT22;37940;53.002;6.930;2022-12-18T11:48:14;-2.20;99.90
51914;DHT22;37940;53.002;6.930;2022-12-18T11:50:52;-2.20;99.90
51914;DHT22;37940;53.002;6.930;2022-12-18T11:53:19;-2.10;99.90
51914;DHT22;37940;53.002;6.930;2022-12-18T12:01:48;-2.10;99.90
51914;DHT22;37940;53.002;6.930;2022-12-18T12:09:39;-2.00;99.90
51914;DHT22;37940;53.002;6.930;2022-12-18T12:15:22;-2.00;99.90
51914;DHT22;37940;53.002;6.930;2022-12-18T12:23:55;-1.90;99.90
51914;DHT22;37940;53.002;6.930;2022-12-18T12:26:33;-1.90;99.90
51914;DHT22;37940;53.002;6.930;2022-12-18T12:34:25;-1.80;99.90
51914;DHT22;37940;53.002;6.930;2022-12-18T12:39:56;-1.70;99.90
51914;DHT22;37940;53.002;6.930;2022-12-18T12:42:44;-1.70;99.90
51914;DHT22;37940;53.002;6.930;2022-12-18T12:51:34;-1.70;99.90
51914;DHT22;37940;53.002;6.930;2022-12-18T12:54:04;-1.70;99.90
51914;DHT22;37940;53.002;6.930;2022-12-18T12:56:48;-1.60;99.90
51914;DHT22;37940;53.002;6.930;2022-12-18T12:59:21;-1.60;99.90
51914;DHT22;37940;53.002;6.930;2022-12-18T13:02:06;-1.60;99.90
51914;DHT22;37940;53.002;6.930;2022-12-18T13:04:56;-1.60;99.90
51914;DHT22;37940;53.002;6.930;2022-12-18T13:07:37;-1.50;99.90
51914;DHT22;37940;53.002;6.930;2022-12-18T13:10:22;-1.50;99.90
51914;DHT22;37940;53.002;6.930;2022-12-18T13:12:57;-0.20;99.90
51914;DHT22;37940;53.002;6.930;2022-12-18T13:15:30;-0.80;99.90
51914;DHT22;37940;53.002;6.930;2022-12-18T13:20:41;-1.50;99.90
51914;DHT22;37940;53.002;6.930;2022-12-18T13:23:26;-1.50;99.90
51914;DHT22;37940;53.002;6.930;2022-12-18T13:25:59;-0.90;99.90
51914;DHT22;37940;53.002;6.930;2022-12-18T13:31:14;-1.40;99.90
51914;DHT22;37940;53.002;6.930;2022-12-18T13:33:44;-0.10;99.90
51914;DHT22;37940;53.002;6.930;2022-12-18T13:39:10;-0.10;99.90
51914;DHT22;37940;53.002;6.930;2022-12-18T13:41:38;-1.50;99.90
51914;DHT22;37940;53.002;6.930;2022-12-18T13:47:35;-1.50;99.90
51914;DHT22;37940;53.002;6.930;2022-12-18T13:50:15;-1.00;99.90
51914;DHT22;37940;53.002;6.930;2022-12-18T13:52:45;-1.60;99.90
51914;DHT22;37940;53.002;6.930;2022-12-18T13:55:17;-1.60;99.90
51914;DHT22;37940;53.002;6.930;2022-12-18T13:57:44;-1.60;99.90
51914;DHT22;37940;53.002;6.930;2022-12-18T14:02:45;-1.70;99.90
51914;DHT22;37940;53.002;6.930;2022-12-18T14:05:29;-1.70;99.90
51914;DHT22;37940;53.002;6.930;2022-12-18T14:08:16;-2.90;99.90
51914;DHT22;37940;53.002;6.930;2022-12-18T14:10:43;-1.70;99.90
51914;DHT22;37940;53.002;6.930;2022-12-18T14:13:11;-1.80;99.90
51914;DHT22;37940;53.002;6.930;2022-12-18T14:15:45;-1.30;99.90
51914;DHT22;37940;53.002;6.930;2022-12-18T14:21:02;-1.80;99.90
51914;DHT22;37940;53.002;6.930;2022-12-18T14:23:40;-1.90;99.90
51914;DHT22;37940;53.002;6.930;2022-12-18T14:26:24;-1.40;99.90
51914;DHT22;37940;53.002;6.930;2022-12-18T14:28:52;-1.90;99.90
51914;DHT22;37940;53.002;6.930;2022-12-18T14:31:25;-2.00;99.90
51914;DHT22;37940;53.002;6.930;2022-12-18T14:33:52;-2.00;99.90
51914;DHT22;37940;53.002;6.930;2022-12-18T14:36:24;-2.00;99.90
51914;DHT22;37940;53.002;6.930;2022-12-18T14:38:54;-1.10;99.90
51914;DHT22;37940;53.002;6.930;2022-12-18T14:41:21;-2.10;99.90
51914;DHT22;37940;53.002;6.930;2022-12-18T14:43:48;-2.10;99.90
51914;DHT22;37940;53.002;6.930;2022-12-18T14:49:02;-1.80;99.90
51914;DHT22;37940;53.002;6.930;2022-12-18T14:51:30;-2.20;99.90
51914;DHT22;37940;53.002;6.930;2022-12-18T14:53:59;-1.10;99.90
51914;DHT22;37940;53.002;6.930;2022-12-18T14:56:31;-0.70;99.90
51914;DHT22;37940;53.002;6.930;2022-12-18T14:59:04;-2.30;99.90
51914;DHT22;37940;53.002;6.930;2022-12-18T15:01:44;-2.30;99.90
51914;DHT22;37940;53.002;6.930;2022-12-18T15:04:36;-2.30;99.90
51914;DHT22;37940;53.002;6.930;2022-12-18T15:07:22;-2.30;99.90
51914;DHT22;37940;53.002;6.930;2022-12-18T15:12:42;-2.30;99.90
51914;DHT22;37940;53.002;6.930;2022-12-18T15:17:59;-2.30;99.90
51914;DHT22;37940;53.002;6.930;2022-12-18T15:20:25;-2.40;99.90
51914;DHT22;37940;53.002;6.930;2022-12-18T15:22:51;-2.40;99.90
51914;DHT22;37940;53.002;6.930;2022-12-18T15:25:31;-2.40;99.90
51914;DHT22;37940;53.002;6.930;2022-12-18T15:27:57;-1.40;99.90
51914;DHT22;37940;53.002;6.930;2022-12-18T15:30:25;-2.40;99.90
51914;DHT22;37940;53.002;6.930;2022-12-18T15:32:52;-2.40;99.90
51914;DHT22;37940;53.002;6.930;2022-12-18T15:35:23;-2.40;99.90
51914;DHT22;37940;53.002;6.930;2022-12-18T15:37:51;-2.40;99.90
51914;DHT22;37940;53.002;6.930;2022-12-18T15:40:26;-2.40;99.90
51914;DHT22;37940;53.002;6.930;2022-12-18T15:42:53;-2.40;99.90
51914;DHT22;37940;53.002;6.930;2022-12-18T15:45:38;-2.40;99.90
51914;DHT22;37940;53.002;6.930;2022-12-18T15:48:20;-2.00;99.90
51914;DHT22;37940;53.002;6.930;2022-12-18T15:50:54;-2.40;99.90
51914;DHT22;37940;53.002;6.930;2022-12-18T15:53:23;-2.40;99.90
51914;DHT22;37940;53.002;6.930;2022-12-18T15:55:49;-2.40;99.90
51914;DHT22;37940;53.002;6.930;2022-12-18T15:58:33;-2.40;99.90
51914;DHT22;37940;53.002;6.930;2022-12-18T16:00:59;-2.30;99.90
51914;DHT22;37940;53.002;6.930;2022-12-18T16:03:26;-2.30;99.90
51914;DHT22;37940;53.002;6.930;2022-12-18T16:05:51;-2.30;99.90
51914;DHT22;37940;53.002;6.930;2022-12-18T16:08:17;-2.40;99.90
51914;DHT22;37940;53.002;6.930;2022-12-18T16:10:43;-0.70;99.90
51914;DHT22;37940;53.002;6.930;2022-12-18T16:13:16;-2.30;99.90
51914;DHT22;37940;53.002;6.930;2022-12-18T16:15:44;-2.30;99.90
51914;DHT22;37940;53.002;6.930;2022-12-18T16:18:10;-0.90;99.90
51914;DHT22;37940;53.002;6.930;2022-12-18T16:20:36;-2.30;99.90
51914;DHT22;37940;53.002;6.930;2022-12-18T16:23:01;-2.30;99.90
51914;DHT22;37940;53.002;6.930;2022-12-18T16:25:28;-2.30;99.90
51914;DHT22;37940;53.002;6.930;2022-12-18T16:27:55;-2.20;99.90
51914;DHT22;37940;53.002;6.930;2022-12-18T16:30:25;-2.30;99.90
51914;DHT22;37940;53.002;6.930;2022-12-18T16:32:53;-1.90;99.90
51914;DHT22;37940;53.002;6.930;2022-12-18T16:35:19;-2.20;99.90
51914;DHT22;37940;53.002;6.930;2022-12-18T16:37:45;-2.20;99.90
51914;DHT22;37940;53.002;6.930;2022-12-18T16:40:13;-2.20;99.90
51914;DHT22;37940;53.002;6.930;2022-12-18T16:42:40;-2.20;99.90
51914;DHT22;37940;53.002;6.930;2022-12-18T16:45:08;-1.40;99.90
51914;DHT22;37940;53.002;6.930;2022-12-18T16:47:34;-2.10;99.90
51914;DHT22;37940;53.002;6.930;2022-12-18T16:50:00;-2.10;99.90
51914;DHT22;37940;53.002;6.930;2022-12-18T16:52:26;-1.00;99.90
51914;DHT22;37940;53.002;6.930;2022-12-18T16:54:52;-1.10;99.90
51914;DHT22;37940;53.002;6.930;2022-12-18T16:57:19;-1.20;99.90
51914;DHT22;37940;53.002;6.930;2022-12-18T16:59:45;-2.10;99.90
51914;DHT22;37940;53.002;6.930;2022-12-18T17:02:20;-2.00;99.90
51914;DHT22;37940;53.002;6.930;2022-12-18T17:04:47;-2.10;99.90
51914;DHT22;37940;53.002;6.930;2022-12-18T17:07:13;-2.00;99.90
51914;DHT22;37940;53.002;6.930;2022-12-18T17:09:39;-1.20;99.90
51914;DHT22;37940;53.002;6.930;2022-12-18T17:12:05;-0.50;99.90
51914;DHT22;37940;53.002;6.930;2022-12-18T17:14:31;-2.00;99.90
51914;DHT22;37940;53.002;6.930;2022-12-18T17:16:57;-2.00;99.90
51914;DHT22;37940;53.002;6.930;2022-12-18T17:19:25;-2.00;99.90
51914;DHT22;37940;53.002;6.930;2022-12-18T17:21:51;-2.00;99.90
51914;DHT22;37940;53.002;6.930;2022-12-18T17:24:23;-2.00;99.90
51914;DHT22;37940;53.002;6.930;2022-12-18T17:26:49;-2.00;99.90
51914;DHT22;37940;53.002;6.930;2022-12-18T17:29:17;-2.00;99.90
51914;DHT22;37940;53.002;6.930;2022-12-18T17:31:45;-1.90;99.90